Time;durP1;ratioP1;P1;durP2;ratioP2;P2;SDS_P1;SDS_P2;PMS_P1;PMS_P2;Temp;Humidity;BMP_temperature;BMP_pressure;BME280_temperature;BME280_humidity;BME280_pressure;Samples;Min_cycle;Max_cycle;Signal;HPM_P1;HPM_P2
2022/05/12 00:00:03;;;;;;;6.03;5.60;;;19.50;99.90;;;;;;5049554;28;20548;-53
2022/05/12 00:02:30;;;;;;;7.83;4.17;;;19.50;99.90;;;;;;5051112;28;20288;-53
2022/05/12 00:04:59;;;;;;;4.10;3.90;;;19.60;99.90;;;;;;5045947;28;20374;-54
2022/05/12 00:07:26;;;;;;;5.23;4.83;;;19.60;99.90;;;;;;5047997;28;20335;-53
2022/05/12 00:09:53;;;;;;;4.53;4.33;;;19.60;99.90;;;;;;5052555;28;20937;-54
2022/05/12 00:12:20;;;;;;;5.60;5.13;;;19.70;99.90;;;;;;5046555;28;20700;-54
2022/05/12 00:14:49;;;;;;;5.23;4.93;;;19.70;99.90;;;;;;5041052;28;20264;-54
2022/05/12 00:17:19;;;;;;;5.07;4.77;;;19.70;99.90;;;;;;5051834;28;20206;-54
2022/05/12 00:19:47;;;;;;;5.20;4.90;;;19.70;99.90;;;;;;5051515;28;20660;-54
2022/05/12 00:22:14;;;;;;;4.53;4.33;;;19.70;99.90;;;;;;5048702;28;20626;-54
2022/05/12 00:27:23;;;;;;;5.23;4.83;;;19.70;99.90;;;;;;5069942;27;20563;-47
2022/05/12 00:29:50;;;;;;;5.33;4.93;;;19.70;99.90;;;;;;5069054;28;20201;-47
2022/05/12 00:32:17;;;;;;;5.20;4.70;;;19.70;99.90;;;;;;5067118;28;20610;-47
2022/05/12 00:34:44;;;;;;;7.33;4.47;;;19.70;99.90;;;;;;5069326;28;20205;-48
2022/05/12 00:37:12;;;;;;;4.47;4.17;;;19.70;99.90;;;;;;5047993;28;20230;-47
2022/05/12 00:39:39;;;;;;;7.67;4.73;;;19.80;99.90;;;;;;5048285;28;20198;-48
2022/05/12 00:42:06;;;;;;;4.83;4.53;;;19.80;99.90;;;;;;5048407;28;20229;-47
2022/05/12 00:44:35;;;;;;;6.33;5.10;;;19.90;99.90;;;;;;5047611;28;20279;-47
2022/05/12 00:47:02;;;;;;;5.03;4.83;;;19.90;99.90;;;;;;5048900;28;20252;-47
2022/05/12 00:49:31;;;;;;;5.13;4.80;;;19.80;99.90;;;;;;5047987;28;20634;-47
2022/05/12 00:52:06;;;;;;;4.73;4.53;;;19.80;99.90;;;;;;5046679;28;20260;-48
2022/05/12 00:54:39;;;;;;;5.17;4.70;;;19.80;99.90;;;;;;5048686;28;20217;-48
2022/05/12 00:57:10;;;;;;;5.17;4.87;;;19.70;99.90;;;;;;5046511;28;20749;-47
2022/05/12 00:59:38;;;;;;;4.60;4.40;;;19.60;99.90;;;;;;5048398;28;20204;-48
2022/05/12 01:02:11;;;;;;;9.07;5.07;;;19.60;99.90;;;;;;5048259;28;20229;-48
2022/05/12 01:04:39;;;;;;;5.63;5.13;;;19.50;99.90;;;;;;5048431;28;20633;-48
2022/05/12 01:07:06;;;;;;;4.93;4.73;;;19.50;99.90;;;;;;5046608;28;20345;-48
2022/05/12 01:09:33;;;;;;;5.23;4.93;;;19.40;99.90;;;;;;5044502;28;20268;-48
2022/05/12 01:12:00;;;;;;;5.03;4.73;;;19.40;99.90;;;;;;5046655;28;20194;-48
2022/05/12 01:14:27;;;;;;;4.60;4.30;;;19.30;99.90;;;;;;5047455;28;20668;-47
2022/05/12 01:16:57;;;;;;;5.13;4.83;;;19.30;99.90;;;;;;5048880;28;20218;-47
2022/05/12 01:19:26;;;;;;;5.07;4.67;;;19.30;99.90;;;;;;5048253;28;20202;-48
2022/05/12 01:21:55;;;;;;;5.37;4.93;;;19.30;99.90;;;;;;5043341;28;20194;-47
2022/05/12 01:24:26;;;;;;;7.47;4.90;;;19.20;99.90;;;;;;5047239;28;20268;-48
2022/05/12 01:26:53;;;;;;;8.30;5.97;;;19.20;99.90;;;;;;5047769;28;20218;-47
2022/05/12 01:29:20;;;;;;;4.93;4.63;;;19.30;99.90;;;;;;5047875;28;20739;-47
2022/05/12 01:31:47;;;;;;;4.90;4.70;;;19.30;99.90;;;;;;5047875;28;20256;-48
2022/05/12 01:34:15;;;;;;;5.43;5.03;;;19.20;99.90;;;;;;5045649;28;20206;-47
2022/05/12 01:36:42;;;;;;;4.97;4.70;;;19.20;99.90;;;;;;5044921;28;20313;-47
2022/05/12 01:39:10;;;;;;;4.80;4.63;;;19.20;99.90;;;;;;5033173;28;20198;-48
2022/05/12 01:41:38;;;;;;;6.00;4.90;;;19.10;99.90;;;;;;5033420;28;20257;-48
2022/05/12 01:44:06;;;;;;;4.90;4.53;;;19.10;99.90;;;;;;5031154;28;20203;-48
2022/05/12 01:46:33;;;;;;;4.70;4.40;;;19.10;99.90;;;;;;5032213;28;20223;-48
2022/05/12 01:49:00;;;;;;;6.17;5.43;;;19.10;99.90;;;;;;5034213;28;20200;-48
2022/05/12 01:51:28;;;;;;;4.70;4.47;;;19.20;99.90;;;;;;5033279;28;20283;-48
2022/05/12 01:53:55;;;;;;;5.37;5.17;;;19.10;99.90;;;;;;5034549;28;20237;-47
2022/05/12 01:56:22;;;;;;;4.53;4.23;;;19.20;99.90;;;;;;5032236;28;20274;-47
2022/05/12 01:58:50;;;;;;;4.73;4.37;;;19.30;99.90;;;;;;5034219;28;20202;-48
2022/05/12 02:01:17;;;;;;;4.97;4.77;;;19.30;99.90;;;;;;5034096;28;20562;-48
2022/05/12 02:03:44;;;;;;;5.70;5.10;;;19.50;99.90;;;;;;5034224;28;20276;-47
2022/05/12 02:06:11;;;;;;;4.80;4.50;;;19.70;99.90;;;;;;5034005;28;20226;-47
2022/05/12 02:08:38;;;;;;;5.03;4.73;;;19.70;99.90;;;;;;5029940;28;20249;-47
2022/05/12 02:11:05;;;;;;;4.57;4.17;;;19.80;99.90;;;;;;5032803;28;20202;-47
2022/05/12 02:13:32;;;;;;;5.17;4.77;;;19.80;99.90;;;;;;5033920;28;20206;-47
2022/05/12 02:16:01;;;;;;;4.33;4.13;;;19.80;99.90;;;;;;5033449;28;20272;-47
2022/05/12 02:18:29;;;;;;;4.50;4.23;;;19.90;99.90;;;;;;5033577;28;20245;-48
2022/05/12 02:20:57;;;;;;;4.33;4.20;;;19.90;99.90;;;;;;5030857;28;20207;-47
2022/05/12 02:23:24;;;;;;;5.23;4.83;;;19.80;99.90;;;;;;5033270;28;20740;-48
2022/05/12 02:25:51;;;;;;;3.60;3.50;;;19.70;99.90;;;;;;5031274;28;20230;-48
2022/05/12 02:28:19;;;;;;;4.37;4.07;;;19.60;99.90;;;;;;5033113;28;20208;-48
2022/05/12 02:30:46;;;;;;;4.73;4.50;;;19.60;99.90;;;;;;5033299;28;20199;-47
2022/05/12 02:33:14;;;;;;;4.67;4.27;;;19.40;99.90;;;;;;5031127;28;20668;-48
2022/05/12 02:35:42;;;;;;;5.20;4.80;;;19.40;99.90;;;;;;5032588;28;20226;-48
2022/05/12 02:38:11;;;;;;;4.60;4.30;;;19.30;99.90;;;;;;5024405;28;20260;-47
2022/05/12 02:40:39;;;;;;;5.10;4.90;;;19.20;99.90;;;;;;5032289;28;20611;-48
2022/05/12 02:43:23;;;;;;;5.10;4.73;;;19.10;99.90;;;;;;5033079;28;20209;-47
2022/05/12 02:45:50;;;;;;;5.27;4.77;;;18.90;99.90;;;;;;5029751;28;20301;-48
2022/05/12 02:48:19;;;;;;;4.47;4.27;;;18.90;99.90;;;;;;5031374;28;20198;-48
2022/05/12 02:50:47;;;;;;;4.63;4.43;;;18.80;99.90;;;;;;5032154;28;20211;-48
2022/05/12 02:53:14;;;;;;;4.77;4.37;;;18.70;99.90;;;;;;5030217;28;20198;-47
2022/05/12 02:55:41;;;;;;;4.50;4.30;;;18.70;99.90;;;;;;5032848;28;20226;-48
2022/05/12 02:58:08;;;;;;;3.90;3.80;;;18.60;99.90;;;;;;5029895;28;20248;-47
2022/05/12 03:00:36;;;;;;;5.17;4.80;;;18.60;99.90;;;;;;5032417;28;20284;-48
2022/05/12 03:03:03;;;;;;;4.40;4.20;;;18.50;99.90;;;;;;5033005;28;20206;-48
2022/05/12 03:05:31;;;;;;;5.63;5.13;;;18.40;99.90;;;;;;5033070;28;20253;-48
2022/05/12 03:07:59;;;;;;;4.40;4.17;;;18.40;99.90;;;;;;5032861;28;20240;-47
2022/05/12 03:10:26;;;;;;;4.77;4.50;;;18.40;99.90;;;;;;5030508;28;20722;-48
2022/05/12 03:12:53;;;;;;;4.77;4.53;;;18.40;99.90;;;;;;5031560;28;20202;-48
2022/05/12 03:15:21;;;;;;;5.03;4.73;;;18.40;99.90;;;;;;5032375;28;20280;-48
2022/05/12 03:17:48;;;;;;;4.93;4.53;;;18.40;99.90;;;;;;5032180;28;20284;-48
2022/05/12 03:20:18;;;;;;;5.23;4.87;;;18.40;99.90;;;;;;5032542;28;20668;-48
2022/05/12 03:22:47;;;;;;;5.20;4.90;;;18.40;99.90;;;;;;5031687;28;20260;-47
2022/05/12 03:25:16;;;;;;;5.27;4.97;;;18.40;99.90;;;;;;5031028;28;20226;-47
2022/05/12 03:27:43;;;;;;;4.93;4.60;;;18.40;99.90;;;;;;5031294;28;20676;-48
2022/05/12 03:30:13;;;;;;;5.50;5.17;;;18.40;99.90;;;;;;5031270;28;20256;-48
2022/05/12 03:32:41;;;;;;;5.37;4.83;;;18.40;99.90;;;;;;5032293;28;20614;-47
2022/05/12 03:35:09;;;;;;;7.20;4.90;;;18.40;99.90;;;;;;5031986;28;20230;-47
2022/05/12 03:37:37;;;;;;;4.83;4.63;;;18.30;99.90;;;;;;5030817;28;20305;-47
2022/05/12 03:40:08;;;;;;;4.80;4.60;;;18.30;99.90;;;;;;5032282;28;20202;-47
2022/05/12 03:42:35;;;;;;;5.73;5.33;;;18.20;99.90;;;;;;5031996;28;20272;-48
2022/05/12 03:45:01;;;;;;;4.87;4.67;;;18.20;99.90;;;;;;5029133;28;20203;-48
2022/05/12 03:47:33;;;;;;;5.27;5.07;;;18.10;99.90;;;;;;5032127;28;20615;-48
2022/05/12 03:50:03;;;;;;;5.73;5.43;;;18.10;99.90;;;;;;5030338;28;20203;-48
2022/05/12 03:52:31;;;;;;;6.13;5.60;;;18.10;99.90;;;;;;5033121;28;20209;-47
2022/05/12 03:54:58;;;;;;;5.37;5.17;;;18.00;99.90;;;;;;5049651;28;20449;-48
2022/05/12 03:57:28;;;;;;;5.33;4.93;;;18.00;99.90;;;;;;5031749;28;20226;-48
2022/05/12 03:59:56;;;;;;;5.07;4.77;;;18.00;99.90;;;;;;5026740;28;20553;-46
2022/05/12 04:02:23;;;;;;;5.80;5.40;;;18.10;99.90;;;;;;5028935;28;20664;-48
2022/05/12 04:04:50;;;;;;;5.73;5.43;;;18.10;99.90;;;;;;5031657;28;20285;-47
2022/05/12 04:07:20;;;;;;;5.30;4.90;;;18.10;99.90;;;;;;5031873;28;20194;-48
2022/05/12 04:09:48;;;;;;;5.17;4.97;;;18.20;99.90;;;;;;5030472;28;20203;-48
2022/05/12 04:12:15;;;;;;;5.57;5.07;;;18.20;99.90;;;;;;5031533;28;20742;-48
2022/05/12 04:14:44;;;;;;;5.90;5.50;;;18.20;99.90;;;;;;5028908;28;20198;-47
2022/05/12 04:17:16;;;;;;;7.53;6.90;;;18.30;99.90;;;;;;5021851;28;20639;-47
2022/05/12 04:19:43;;;;;;;5.97;5.57;;;18.40;99.90;;;;;;5031581;28;20201;-47
2022/05/12 04:22:10;;;;;;;7.70;6.33;;;18.40;99.90;;;;;;5031212;28;20289;-48
2022/05/12 04:24:37;;;;;;;6.30;5.83;;;18.40;99.90;;;;;;5031340;28;20260;-47
2022/05/12 04:27:06;;;;;;;6.03;5.73;;;18.30;99.90;;;;;;5025862;28;20236;-48
2022/05/12 04:29:36;;;;;;;5.77;5.30;;;18.30;99.90;;;;;;5031432;28;20205;-47
2022/05/12 04:32:05;;;;;;;6.43;6.03;;;18.30;99.90;;;;;;5032140;28;20625;-48
2022/05/12 04:37:17;;;;;;;7.37;6.67;;;18.50;99.90;;;;;;5030122;28;20283;-47
2022/05/12 04:39:44;;;;;;;6.77;6.17;;;18.50;99.90;;;;;;5021708;28;20194;-47
2022/05/12 04:42:11;;;;;;;6.37;5.97;;;18.50;99.90;;;;;;5027424;28;20313;-47
2022/05/12 04:44:38;;;;;;;7.90;7.17;;;18.50;99.90;;;;;;5030027;28;20195;-47
2022/05/12 04:47:07;;;;;;;6.87;6.37;;;18.60;99.90;;;;;;5036241;28;20272;-47
2022/05/12 04:49:35;;;;;;;7.40;6.70;;;18.60;99.90;;;;;;5029499;28;20213;-47
2022/05/12 04:52:02;;;;;;;6.13;5.90;;;18.80;99.90;;;;;;5029975;28;20202;-47
2022/05/12 04:54:29;;;;;;;5.90;5.60;;;18.80;99.90;;;;;;5030926;28;20294;-48
2022/05/12 04:56:57;;;;;;;7.17;6.57;;;18.80;99.90;;;;;;5026995;28;20276;-48
2022/05/12 04:59:24;;;;;;;7.00;5.47;;;18.80;99.90;;;;;;5024601;28;20305;-48
2022/05/12 05:01:51;;;;;;;9.53;7.13;;;18.80;99.90;;;;;;5027747;28;20267;-47
2022/05/12 05:04:20;;;;;;;6.97;6.47;;;18.80;99.90;;;;;;5026177;28;20202;-47
2022/05/12 05:06:47;;;;;;;5.90;5.50;;;18.70;99.90;;;;;;5026857;28;20256;-48
2022/05/12 05:09:14;;;;;;;5.63;5.37;;;18.60;99.90;;;;;;5029686;28;20203;-47
2022/05/12 05:11:41;;;;;;;5.13;4.90;;;18.60;99.90;;;;;;5029138;28;20195;-47
2022/05/12 05:14:08;;;;;;;5.07;4.87;;;18.60;99.90;;;;;;5030588;28;20252;-47
2022/05/12 05:16:36;;;;;;;5.93;5.43;;;18.60;99.90;;;;;;5032070;28;20712;-47
2022/05/12 05:19:03;;;;;;;5.80;5.40;;;18.70;99.90;;;;;;5033730;28;20199;-48
2022/05/12 05:21:31;;;;;;;7.53;6.37;;;18.90;99.90;;;;;;5031280;28;20264;-47
2022/05/12 05:24:00;;;;;;;7.30;6.40;;;19.00;99.90;;;;;;5031182;28;20672;-47
2022/05/12 05:26:31;;;;;;;9.57;6.23;;;19.10;99.90;;;;;;5025810;28;20329;-47
2022/05/12 05:28:58;;;;;;;5.80;5.37;;;19.20;99.90;;;;;;5028429;28;20199;-47
2022/05/12 05:31:26;;;;;;;8.03;6.07;;;19.50;99.90;;;;;;5028508;28;20194;-47
2022/05/12 05:33:53;;;;;;;7.10;6.50;;;19.70;99.90;;;;;;5030688;28;20202;-47
2022/05/12 05:36:20;;;;;;;7.17;6.53;;;19.90;99.90;;;;;;5033063;28;20225;-47
2022/05/12 05:38:49;;;;;;;7.17;6.70;;;19.90;99.90;;;;;;5031299;28;20276;-48
2022/05/12 05:41:18;;;;;;;6.20;5.80;;;19.70;99.90;;;;;;5033309;28;20280;-47
2022/05/12 05:43:45;;;;;;;7.33;6.80;;;19.70;99.90;;;;;;5035059;28;20210;-48
2022/05/12 05:46:12;;;;;;;7.37;6.73;;;19.70;99.90;;;;;;5032752;28;20224;-47
2022/05/12 05:48:39;;;;;;;7.10;6.50;;;19.90;99.90;;;;;;5041206;28;20244;-47
2022/05/12 05:53:54;;;;;;;6.97;6.27;;;21.40;99.90;;;;;;5024365;28;20328;-48
2022/05/12 05:56:21;;;;;;;9.10;7.53;;;22.50;99.90;;;;;;5031276;28;20322;-48
2022/05/12 05:58:49;;;;;;;8.10;5.90;;;22.80;99.90;;;;;;5032193;28;20219;-48
2022/05/12 06:01:18;;;;;;;9.03;6.57;;;23.00;99.90;;;;;;5032512;28;20202;-48
2022/05/12 06:03:46;;;;;;;6.97;6.37;;;22.60;99.90;;;;;;5033936;28;20224;-48
2022/05/12 06:06:13;;;;;;;8.17;6.33;;;22.40;99.90;;;;;;5035615;28;20226;-48
2022/05/12 06:08:41;;;;;;;8.60;6.00;;;22.80;99.90;;;;;;5033872;28;20277;-48
2022/05/12 06:11:28;;;;;;;6.27;5.07;;;23.80;99.90;;;;;;5033208;28;20696;-48
2022/05/12 06:13:55;;;;;;;6.97;6.37;;;25.20;99.90;;;;;;5033261;28;20198;-48
2022/05/12 06:16:22;;;;;;;6.13;5.73;;;26.20;99.50;;;;;;5035842;28;20659;-48
2022/05/12 06:18:50;;;;;;;6.30;5.13;;;26.70;98.20;;;;;;5032779;28;20692;-48
2022/05/12 06:21:17;;;;;;;5.03;4.73;;;27.10;98.90;;;;;;5033285;28;20198;-48
2022/05/12 06:23:46;;;;;;;10.00;4.83;;;27.60;98.00;;;;;;5032091;28;20233;-48
2022/05/12 06:26:14;;;;;;;5.37;5.03;;;27.30;96.70;;;;;;5031198;28;20284;-48
2022/05/12 06:28:45;;;;;;;6.67;5.20;;;26.60;96.50;;;;;;5032670;28;20198;-48
2022/05/12 06:31:13;;;;;;;5.20;4.80;;;25.80;97.50;;;;;;5031610;28;20210;-47
2022/05/12 06:33:41;;;;;;;6.93;5.20;;;24.90;99.10;;;;;;5032633;28;20707;-48
2022/05/12 06:36:09;;;;;;;4.97;4.40;;;24.10;99.10;;;;;;5031351;28;20284;-47
2022/05/12 06:38:38;;;;;;;5.63;5.03;;;23.40;99.90;;;;;;5030846;28;20263;-47
2022/05/12 06:41:06;;;;;;;4.70;4.30;;;22.90;99.90;;;;;;5029646;28;20210;-48
2022/05/12 06:43:34;;;;;;;5.63;5.00;;;22.50;99.90;;;;;;5040363;22;20232;-55
2022/05/12 06:46:02;;;;;;;5.17;4.67;;;22.20;99.90;;;;;;5007848;28;20251;-55
2022/05/12 06:48:29;;;;;;;9.40;5.20;;;22.00;99.90;;;;;;5007431;28;20246;-55
2022/05/12 06:50:56;;;;;;;5.80;5.33;;;21.90;99.90;;;;;;5012120;28;20195;-54
2022/05/12 06:53:23;;;;;;;5.53;5.10;;;21.90;99.90;;;;;;5011845;28;20269;-55
2022/05/12 06:55:50;;;;;;;6.03;4.53;;;21.80;99.90;;;;;;5011739;28;20615;-55
2022/05/12 06:58:17;;;;;;;6.03;5.50;;;21.80;99.90;;;;;;5013511;28;20219;-55
2022/05/12 07:00:45;;;;;;;5.07;4.07;;;21.80;99.90;;;;;;5012135;28;20701;-55
2022/05/12 07:03:13;;;;;;;4.67;4.23;;;21.70;99.90;;;;;;5009071;28;20227;-55
2022/05/12 07:05:41;;;;;;;7.03;4.80;;;21.60;99.90;;;;;;5019646;28;20203;-55
2022/05/12 07:08:09;;;;;;;4.97;4.57;;;21.60;99.90;;;;;;5013234;28;20198;-54
2022/05/12 07:10:36;;;;;;;4.83;4.40;;;21.60;99.90;;;;;;5013961;28;20207;-54
2022/05/12 07:13:04;;;;;;;4.67;4.37;;;21.60;99.90;;;;;;5014656;28;20600;-55
2022/05/12 07:15:31;;;;;;;5.33;4.87;;;21.60;99.90;;;;;;5013242;28;20191;-54
2022/05/12 07:18:00;;;;;;;4.97;4.57;;;21.70;99.90;;;;;;5013228;28;20219;-55
2022/05/12 07:28:43;;;;;;;4.37;4.20;;;21.50;99.90;;;;;;5011332;28;20237;-54
2022/05/12 07:31:11;;;;;;;5.10;4.70;;;21.60;99.90;;;;;;5004005;28;20201;-54
2022/05/12 07:33:40;;;;;;;5.33;4.53;;;21.60;99.90;;;;;;5011922;28;20231;-54
2022/05/12 07:36:12;;;;;;;5.27;4.67;;;21.50;99.90;;;;;;5011837;28;20257;-54
2022/05/12 07:38:39;;;;;;;6.33;5.40;;;21.70;99.90;;;;;;5010870;28;20223;-54
2022/05/12 07:41:07;;;;;;;7.43;6.63;;;22.00;99.90;;;;;;5010044;28;20204;-55
2022/05/12 07:43:34;;;;;;;6.53;6.03;;;22.40;99.90;;;;;;5009683;28;20303;-55
2022/05/12 07:46:01;;;;;;;6.93;4.80;;;22.90;99.90;;;;;;5007999;28;20225;-55
2022/05/12 07:48:28;;;;;;;6.97;5.03;;;23.00;99.90;;;;;;5010778;28;20666;-55
2022/05/12 07:50:55;;;;;;;5.20;4.37;;;23.20;99.90;;;;;;5010535;28;20697;-55
2022/05/12 07:53:24;;;;;;;4.83;4.40;;;23.40;99.90;;;;;;5009390;28;20230;-55
2022/05/12 07:55:50;;;;;;;5.43;5.00;;;23.70;99.90;;;;;;5010854;28;20253;-55
2022/05/12 07:58:18;;;;;;;7.17;5.03;;;24.30;99.90;;;;;;5011520;28;20642;-55
2022/05/12 08:00:46;;;;;;;4.63;4.23;;;24.40;99.90;;;;;;5011701;28;20199;-55
2022/05/12 08:03:13;;;;;;;5.47;5.07;;;24.50;99.90;;;;;;5007553;28;20832;-55
2022/05/12 08:05:40;;;;;;;4.27;3.97;;;25.50;99.90;;;;;;5011799;28;20607;-55
2022/05/12 08:08:09;;;;;;;6.27;5.60;;;26.40;99.90;;;;;;5010416;28;20593;-55
2022/05/12 08:10:37;;;;;;;4.77;4.47;;;28.00;99.00;;;;;;5007808;28;20294;-55
2022/05/12 08:13:04;;;;;;;5.13;4.32;;;28.50;96.20;;;;;;5010071;28;20273;-55
2022/05/12 08:15:33;;;;;;;5.63;3.85;;;28.90;95.00;;;;;;5010044;28;20289;-55
2022/05/12 08:18:00;;;;;;;4.55;4.25;;;29.10;92.60;;;;;;5006945;28;20215;-55
2022/05/12 08:20:27;;;;;;;4.35;4.05;;;29.50;94.30;;;;;;5007191;28;20203;-55
2022/05/12 08:22:54;;;;;;;5.28;4.78;;;30.40;93.50;;;;;;5010435;28;20223;-55
2022/05/12 08:25:21;;;;;;;4.32;4.03;;;30.70;93.70;;;;;;5011369;28;20618;-56
2022/05/12 08:27:50;;;;;;;5.53;4.70;;;31.30;93.40;;;;;;5009285;28;20282;-55
2022/05/12 08:30:18;;;;;;;4.63;4.32;;;31.60;90.50;;;;;;5011371;28;20202;-55
2022/05/12 08:32:45;;;;;;;5.70;4.93;;;31.80;86.20;;;;;;5010264;28;20227;-55
2022/05/12 08:35:12;;;;;;;4.40;4.00;;;32.50;88.80;;;;;;5018522;28;20202;-56
2022/05/12 08:37:39;;;;;;;3.58;3.38;;;32.80;86.80;;;;;;5014319;28;20198;-56
2022/05/12 08:40:09;;;;;;;3.97;3.67;;;32.70;88.60;;;;;;5011495;28;20192;-56
2022/05/12 08:42:43;;;;;;;4.35;3.60;;;33.40;87.70;;;;;;5010782;28;20285;-55
2022/05/12 08:45:14;;;;;;;4.00;3.70;;;33.60;81.00;;;;;;5011597;28;20198;-56
2022/05/12 08:47:44;;;;;;;4.25;3.95;;;33.60;79.20;;;;;;5013018;28;20257;-56
2022/05/12 08:50:19;;;;;;;3.75;3.45;;;33.70;76.30;;;;;;5014472;28;20253;-55
2022/05/12 08:52:50;;;;;;;3.83;3.55;;;33.40;76.80;;;;;;5015280;28;20214;-56
2022/05/12 08:55:21;;;;;;;5.55;3.13;;;33.50;79.80;;;;;;5026936;28;20256;-56
2022/05/12 08:57:55;;;;;;;3.50;3.20;;;33.60;78.50;;;;;;5013398;28;20207;-56
2022/05/12 09:00:25;;;;;;;4.75;2.67;;;33.40;79.50;;;;;;5015017;28;20198;-55
2022/05/12 09:03:01;;;;;;;4.18;2.30;;;33.70;71.70;;;;;;5014715;28;20223;-55
2022/05/12 09:05:30;;;;;;;2.05;1.85;;;33.90;69.80;;;;;;5014922;28;20253;-55
2022/05/12 09:08:07;;;;;;;5.15;2.47;;;34.10;67.90;;;;;;5012791;28;20229;-55
2022/05/12 09:10:48;;;;;;;4.68;2.10;;;34.10;70.20;;;;;;5014901;28;20253;-55
2022/05/12 09:13:19;;;;;;;2.15;2.03;;;34.10;68.50;;;;;;5014619;28;20277;-55
2022/05/12 09:15:55;;;;;;;2.30;2.15;;;33.40;70.10;;;;;;5014591;28;20723;-55
2022/05/12 09:18:29;;;;;;;3.15;1.80;;;33.10;67.50;;;;;;5014831;28;20226;-55
2022/05/12 09:21:00;;;;;;;2.10;1.58;;;31.90;68.20;;;;;;5014837;28;20338;-55
2022/05/12 09:23:27;;;;;;;3.28;2.13;;;32.80;69.30;;;;;;5011983;28;20219;-56
2022/05/12 09:25:54;;;;;;;1.50;1.40;;;33.20;70.10;;;;;;5014328;28;20222;-57
2022/05/12 09:28:28;;;;;;;4.05;1.80;;;33.30;67.90;;;;;;5014650;28;20199;-54
2022/05/12 09:31:01;;;;;;;2.78;2.17;;;33.60;68.20;;;;;;5014690;28;20720;-56
2022/05/12 09:33:33;;;;;;;2.25;2.15;;;33.70;67.90;;;;;;5014167;28;20231;-56
2022/05/12 09:36:04;;;;;;;3.17;1.98;;;33.20;65.50;;;;;;5013900;28;20215;-56
2022/05/12 09:38:31;;;;;;;3.03;2.00;;;33.00;69.50;;;;;;5010887;28;20223;-56
2022/05/12 09:40:58;;;;;;;4.82;2.15;;;33.10;68.60;;;;;;5014181;28;20253;-56
2022/05/12 09:43:29;;;;;;;3.33;1.95;;;33.30;64.60;;;;;;5013840;28;20786;-56
2022/05/12 09:46:07;;;;;;;1.95;1.90;;;33.30;64.80;;;;;;5012640;28;20680;-56
2022/05/12 09:48:35;;;;;;;2.72;2.53;;;32.80;68.80;;;;;;5013504;28;20278;-56
2022/05/12 09:51:33;;;;;;;2.40;2.15;;;32.80;69.80;;;;;;5014104;28;20673;-56
2022/05/12 09:54:26;;;;;;;5.20;1.92;;;32.70;68.30;;;;;;5009859;28;20215;-56
2022/05/12 09:57:04;;;;;;;2.28;2.15;;;32.70;67.70;;;;;;5013991;28;20281;-56
2022/05/12 09:59:33;;;;;;;2.30;2.20;;;32.90;68.40;;;;;;5009790;28;20207;-56
2022/05/12 10:02:04;;;;;;;2.30;2.20;;;32.10;69.40;;;;;;5013684;28;20219;-57
2022/05/12 10:10:12;;;;;;;3.42;2.00;;;32.50;68.70;;;;;;5013577;28;20317;-56
2022/05/12 10:12:46;;;;;;;6.20;2.60;;;32.40;68.90;;;;;;5013716;28;20227;-56
2022/05/12 10:15:22;;;;;;;3.00;2.80;;;31.90;72.30;;;;;;5013713;28;20207;-56
2022/05/12 10:17:54;;;;;;;2.38;2.30;;;31.50;72.10;;;;;;5013632;28;20612;-56
2022/05/12 10:20:23;;;;;;;2.50;2.30;;;31.70;70.80;;;;;;5011342;28;20227;-56
2022/05/12 10:23:02;;;;;;;4.10;2.42;;;32.30;68.40;;;;;;5011985;28;20284;-56
2022/05/12 10:25:47;;;;;;;2.17;2.00;;;32.60;67.50;;;;;;5012818;28;20273;-56
2022/05/12 10:28:20;;;;;;;3.03;2.15;;;32.60;69.00;;;;;;5013143;28;20274;-56
2022/05/12 10:30:52;;;;;;;2.00;1.90;;;33.00;67.20;;;;;;5012690;28;20195;-56
2022/05/12 10:33:44;;;;;;;2.38;2.28;;;33.30;66.10;;;;;;5014046;28;20223;-56
2022/05/12 10:36:23;;;;;;;2.25;2.13;;;32.60;65.70;;;;;;5011640;28;20204;-56
2022/05/12 10:39:02;;;;;;;5.20;2.72;;;31.40;67.10;;;;;;5013123;28;20298;-56
2022/05/12 10:41:35;;;;;;;2.40;2.20;;;31.00;68.50;;;;;;5012729;28;20206;-56
2022/05/12 10:44:19;;;;;;;4.00;2.75;;;31.00;69.00;;;;;;5013109;28;20218;-56
2022/05/12 10:46:55;;;;;;;4.93;2.00;;;31.30;71.00;;;;;;5013248;28;20214;-56
2022/05/12 10:49:34;;;;;;;2.10;2.00;;;31.40;69.00;;;;;;5013082;28;20284;-56
2022/05/12 10:52:12;;;;;;;6.93;2.28;;;30.90;70.40;;;;;;5011245;28;20734;-56
2022/05/12 10:54:47;;;;;;;2.13;2.03;;;30.60;69.50;;;;;;5011325;28;20203;-56
2022/05/12 10:57:32;;;;;;;5.10;2.45;;;30.10;71.60;;;;;;5004553;28;20202;-56
2022/05/12 11:00:22;;;;;;;2.90;2.70;;;29.80;73.00;;;;;;5011261;28;20211;-56
2022/05/12 11:02:53;;;;;;;2.75;2.55;;;30.00;73.80;;;;;;5009566;28;20297;-56
2022/05/12 11:05:30;;;;;;;2.83;2.60;;;29.90;73.00;;;;;;5010191;28;20257;-55
2022/05/12 11:08:05;;;;;;;4.18;2.30;;;29.70;70.70;;;;;;5011771;28;20265;-56
2022/05/12 11:10:39;;;;;;;4.88;1.95;;;29.50;71.70;;;;;;5009745;28;20194;-56
2022/05/12 11:13:13;;;;;;;2.28;1.98;;;29.00;72.20;;;;;;5011768;28;20225;-55
2022/05/12 11:15:49;;;;;;;2.80;2.60;;;28.70;77.70;;;;;;5012373;28;20207;-56
2022/05/12 11:18:25;;;;;;;2.53;2.35;;;28.60;75.00;;;;;;5012393;28;20218;-55
2022/05/12 11:21:02;;;;;;;2.30;2.20;;;28.70;75.40;;;;;;5012890;28;20273;-56
2022/05/12 11:23:51;;;;;;;2.70;2.50;;;28.90;78.20;;;;;;5009967;28;20227;-56
2022/05/12 11:26:32;;;;;;;2.22;2.10;;;29.10;75.30;;;;;;5005462;28;20204;-56
2022/05/12 11:31:58;;;;;;;2.78;2.58;;;28.80;75.10;;;;;;5011894;28;20234;-56
2022/05/12 11:34:27;;;;;;;3.40;2.53;;;28.80;78.10;;;;;;5010685;28;20272;-56
2022/05/12 11:36:57;;;;;;;4.22;2.38;;;28.70;78.40;;;;;;5012162;28;20200;-55
2022/05/12 11:39:31;;;;;;;2.88;2.78;;;28.70;79.70;;;;;;5011830;28;20822;-55
2022/05/12 11:42:17;;;;;;;2.83;2.72;;;28.30;82.30;;;;;;5011989;28;20584;-56
2022/05/12 11:45:03;;;;;;;3.10;2.33;;;28.00;76.50;;;;;;5011971;28;20618;-56
2022/05/12 11:48:06;;;;;;;3.35;2.55;;;27.90;77.40;;;;;;5006722;28;20199;-56
2022/05/12 11:51:13;;;;;;;2.28;2.08;;;27.80;80.80;;;;;;5007137;28;20286;-56
2022/05/12 11:53:55;;;;;;;4.28;2.72;;;27.80;80.50;;;;;;4989662;28;20226;-55
2022/05/12 11:56:45;;;;;;;3.30;3.10;;;27.90;85.00;;;;;;5001996;28;20199;-56
2022/05/12 11:59:24;;;;;;;3.55;2.30;;;27.70;79.10;;;;;;5003994;28;20269;-55
2022/05/12 12:01:58;;;;;;;3.35;2.40;;;27.60;78.80;;;;;;5008751;28;20222;-54
2022/05/12 12:04:48;;;;;;;2.95;2.58;;;27.60;80.90;;;;;;5005879;28;20253;-55
2022/05/12 12:07:37;;;;;;;6.30;2.33;;;27.60;79.90;;;;;;4997659;28;20636;-54
2022/05/12 12:10:08;;;;;;;3.13;2.90;;;27.70;77.60;;;;;;5010864;28;20200;-56
2022/05/12 12:12:57;;;;;;;2.15;2.15;;;27.50;79.80;;;;;;5010691;28;20227;-54
2022/05/12 12:16:04;;;;;;;3.00;2.63;;;27.40;78.60;;;;;;5005559;28;20200;-56
2022/05/12 12:19:03;;;;;;;3.03;2.70;;;27.30;78.90;;;;;;5002859;28;20199;-56
2022/05/12 12:22:00;;;;;;;2.42;2.25;;;27.30;81.30;;;;;;5010601;28;20207;-56
2022/05/12 12:25:05;;;;;;;3.20;2.92;;;27.30;81.20;;;;;;5009692;28;20265;-56
2022/05/12 12:27:49;;;;;;;8.35;2.05;;;27.50;82.50;;;;;;5011518;28;20233;-56
2022/05/12 12:30:39;;;;;;;2.50;2.30;;;27.50;82.80;;;;;;5011594;28;20800;-56
2022/05/12 12:33:13;;;;;;;2.63;2.40;;;27.60;80.50;;;;;;5011315;28;20265;-56
2022/05/12 12:35:56;;;;;;;2.92;2.60;;;27.50;82.90;;;;;;5009321;28;20211;-56
2022/05/12 12:38:57;;;;;;;3.42;2.88;;;27.40;78.40;;;;;;5011423;28;20199;-56
2022/05/12 12:41:34;;;;;;;3.90;2.65;;;27.30;78.90;;;;;;5011439;28;20199;-56
2022/05/12 12:44:09;;;;;;;7.63;3.38;;;27.30;79.90;;;;;;5094496;22;20229;-50
2022/05/12 12:46:44;;;;;;;2.63;2.42;;;27.30;79.00;;;;;;5071649;28;20239;-48
2022/05/12 12:49:22;;;;;;;4.57;2.50;;;27.30;79.90;;;;;;5091732;28;20204;-47
2022/05/12 12:51:57;;;;;;;4.72;2.58;;;27.40;83.70;;;;;;5074341;28;20201;-47
2022/05/12 12:57:13;;;;;;;2.30;2.28;;;27.10;82.40;;;;;;5058061;28;20681;-47
2022/05/12 12:59:51;;;;;;;2.85;2.45;;;27.10;79.70;;;;;;5071142;28;20245;-47
2022/05/12 13:02:29;;;;;;;2.83;2.70;;;27.00;83.00;;;;;;5071032;28;20577;-47
2022/05/12 13:05:01;;;;;;;4.68;2.13;;;27.00;81.40;;;;;;5071157;28;20200;-47
2022/05/12 13:07:32;;;;;;;4.82;3.03;;;27.00;81.70;;;;;;5061326;28;20209;-47
2022/05/12 13:10:01;;;;;;;2.30;2.10;;;26.90;84.80;;;;;;5050880;28;20734;-47
2022/05/12 13:12:29;;;;;;;2.95;2.58;;;27.00;83.20;;;;;;5050851;28;20287;-48
2022/05/12 13:15:00;;;;;;;6.43;2.63;;;27.00;83.20;;;;;;5051069;28;20216;-47
2022/05/12 13:17:30;;;;;;;4.38;3.05;;;27.00;83.90;;;;;;5051130;28;20209;-50
2022/05/12 13:19:59;;;;;;;2.97;2.37;;;27.00;83.90;;;;;;5051266;28;20225;-47
2022/05/12 13:22:29;;;;;;;5.47;2.38;;;26.60;84.80;;;;;;5050973;28;20272;-47
2022/05/12 13:24:57;;;;;;;2.63;2.38;;;26.40;85.50;;;;;;5048876;28;20232;-47
2022/05/12 13:27:28;;;;;;;3.20;2.45;;;26.40;84.50;;;;;;5050892;28;20245;-47
2022/05/12 13:29:57;;;;;;;5.03;2.58;;;26.50;83.80;;;;;;5050710;28;20255;-47
2022/05/12 13:32:37;;;;;;;2.47;2.38;;;26.40;84.00;;;;;;5050838;28;20225;-47
2022/05/12 13:35:18;;;;;;;5.25;3.05;;;26.60;84.50;;;;;;5054438;28;20259;-47